»·PEaware :: N378SM CL46-KIZA

N378SM :: CL46-KIZA

FLIGHT INFORMATION

Flight Status: Arrived
Operator: Privately registered:
United States
More flights under this callsign
Pilot: Scott M. (2435)
Aircraft: CESSNA 172 SKYHAWK
(C172)
More flights by this aircraft type
Origin: CL46 Quail Lake Sky Park
Canada
Destination: KIZA Santa Ynez
United States
More flights between these airports :: More routes between these airports
Route: RZS
File this flight plan on PilotEdge
Remarks:
Altitude:
(Current/Filed)
8,500ft
Speed:
(Current/Filed)
110kts
Departed: 09-Apr-17 07:23 AM
Arrived: 09-Apr-17 08:05 AM
Distance/Time
Traveled:
67nm/0:42
Distance/Time
To Go:
Arrived

Flight Plot

Page will automatically refresh every two minutes.

Flight plan parsing failed; only flown route is shown


Map Options




Map Legend


Flown Route
Filed Route
Departure Airport
Arrival Airport
Navaid (VOR, NDB)
Fix

Horizontal Profiles

Position Reports

Time Latitude Longitude Heading Altitude Ground
Speed
09-Apr-17 07:18 34.767440 -118.732524 10 3374ft 0kts
09-Apr-17 07:19 34.767440 -118.732524 10 3374ft 0kts
09-Apr-17 07:20 34.767440 -118.732524 10 3374ft 0kts
09-Apr-17 07:21 34.767553 -118.733013 278 3374ft 11kts
09-Apr-17 07:22 34.768259 -118.737472 10 3374ft 0kts
09-Apr-17 07:23 34.768261 -118.737472 10 3374ft 0kts
09-Apr-17 07:24 34.767074 -118.728819 97 3454ft 66kts
09-Apr-17 07:25 34.773263 -118.711292 354 3981ft 79kts
09-Apr-17 07:26 34.776321 -118.740841 278 4521ft 95kts
09-Apr-17 07:27 34.771399 -118.771666 228 5048ft 99kts
09-Apr-17 07:28 34.753041 -118.797120 220 5539ft 101kts
09-Apr-17 07:29 34.737849 -118.825027 251 5990ft 103kts
09-Apr-17 07:30 34.726760 -118.856650 248 6453ft 102kts
09-Apr-17 07:31 34.717444 -118.883634 248 6809ft 103kts
09-Apr-17 07:32 34.706376 -118.915699 248 7221ft 103kts
09-Apr-17 07:33 34.695280 -118.947826 248 7619ft 103kts
09-Apr-17 07:34 34.684212 -118.979864 248 8002ft 102kts
09-Apr-17 07:35 34.673189 -119.011754 248 8368ft 102kts
09-Apr-17 07:36 34.659201 -119.044155 220 8491ft 121kts
09-Apr-17 07:37 34.632348 -119.071427 218 8486ft 128kts
09-Apr-17 07:38 34.605193 -119.098947 218 8485ft 130kts
09-Apr-17 07:39 34.581639 -119.131174 240 8486ft 130kts
09-Apr-17 07:40 34.568835 -119.171378 261 8486ft 128kts
09-Apr-17 07:41 34.562432 -119.214019 262 8468ft 127kts
09-Apr-17 07:42 34.569110 -119.251380 292 8454ft 108kts
09-Apr-17 07:43 34.580172 -119.283637 293 8456ft 100kts
09-Apr-17 07:44 34.581703 -119.316893 272 8457ft 99kts
09-Apr-17 07:45 34.581249 -119.350517 272 8457ft 99kts
09-Apr-17 07:46 34.580802 -119.384001 272 8457ft 99kts
09-Apr-17 07:47 34.580398 -119.418343 272 8458ft 104kts
09-Apr-17 07:48 34.573893 -119.455647 257 7986ft 124kts
09-Apr-17 07:49 34.564794 -119.498524 258 7194ft 133kts
09-Apr-17 07:50 34.555734 -119.539362 257 6528ft 115kts
09-Apr-17 07:51 34.547739 -119.575140 257 6498ft 110kts
09-Apr-17 07:52 34.539750 -119.611022 257 6498ft 110kts
09-Apr-17 07:53 34.531738 -119.647023 257 6498ft 110kts
09-Apr-17 07:54 34.529317 -119.683745 270 6499ft 109kts
09-Apr-17 07:55 34.532239 -119.720933 291 5973ft 113kts
09-Apr-17 07:56 34.545954 -119.755511 293 5275ft 114kts
09-Apr-17 07:57 34.558513 -119.791195 293 4577ft 115kts
09-Apr-17 07:58 34.570571 -119.826001 293 4493ft 110kts
09-Apr-17 07:59 34.582612 -119.860595 293 4493ft 110kts
09-Apr-17 08:00 34.594095 -119.895025 277 4477ft 112kts
09-Apr-17 08:01 34.594709 -119.932315 273 4134ft 106kts
09-Apr-17 08:02 34.595619 -119.969824 273 3301ft 115kts
09-Apr-17 08:03 34.598462 -120.008412 279 2202ft 110kts
09-Apr-17 08:04 34.602798 -120.041642 278 1368ft 87kts
09-Apr-17 08:05 34.605719 -120.066133 279 789ft 68kts
09-Apr-17 08:06 34.607360 -120.076839 43 674ft 2kts
09-Apr-17 08:07 34.607663 -120.074152 357 674ft 8kts
09-Apr-17 08:08 34.607690 -120.074490 191 674ft 0kts
09-Apr-17 08:09 34.607690 -120.074490 191 674ft 0kts

Navigation Log

Ident Type
Flight plan parsing failed, navigation log unavailable